sensor_id;sensor_type;location;lat;lon;timestamp;P1;durP1;ratioP1;P2;durP2;ratioP2
60372;SDS011;46216;52.220;5.134;2023-01-25T00:01:56;34.30;;;24.38;;
60372;SDS011;46216;52.220;5.134;2023-01-25T00:04:22;35.30;;;23.67;;
60372;SDS011;46216;52.220;5.134;2023-01-25T00:06:47;35.53;;;24.42;;
60372;SDS011;46216;52.220;5.134;2023-01-25T00:09:14;32.53;;;23.40;;
60372;SDS011;46216;52.220;5.134;2023-01-25T00:11:40;34.30;;;24.17;;
60372;SDS011;46216;52.220;5.134;2023-01-25T00:14:06;33.45;;;24.20;;
60372;SDS011;46216;52.220;5.134;2023-01-25T00:16:33;33.88;;;23.05;;
60372;SDS011;46216;52.220;5.134;2023-01-25T00:18:59;35.22;;;23.55;;
60372;SDS011;46216;52.220;5.134;2023-01-25T00:21:25;33.47;;;24.13;;
60372;SDS011;46216;52.220;5.134;2023-01-25T00:23:50;33.83;;;23.88;;
60372;SDS011;46216;52.220;5.134;2023-01-25T00:26:16;33.85;;;23.73;;
60372;SDS011;46216;52.220;5.134;2023-01-25T00:28:42;32.85;;;23.40;;
60372;SDS011;46216;52.220;5.134;2023-01-25T00:31:15;34.10;;;24.48;;
60372;SDS011;46216;52.220;5.134;2023-01-25T00:34:04;32.53;;;23.45;;
60372;SDS011;46216;52.220;5.134;2023-01-25T00:36:49;32.63;;;22.58;;
60372;SDS011;46216;52.220;5.134;2023-01-25T00:39:17;33.50;;;24.00;;
60372;SDS011;46216;52.220;5.134;2023-01-25T00:41:43;33.55;;;23.50;;
60372;SDS011;46216;52.220;5.134;2023-01-25T00:44:08;36.42;;;23.88;;
60372;SDS011;46216;52.220;5.134;2023-01-25T00:46:34;30.88;;;22.17;;
60372;SDS011;46216;52.220;5.134;2023-01-25T00:48:59;34.05;;;23.80;;
60372;SDS011;46216;52.220;5.134;2023-01-25T00:51:25;33.88;;;23.13;;
60372;SDS011;46216;52.220;5.134;2023-01-25T00:53:50;32.35;;;23.42;;
60372;SDS011;46216;52.220;5.134;2023-01-25T00:56:16;33.35;;;22.67;;
60372;SDS011;46216;52.220;5.134;2023-01-25T00:58:41;32.33;;;22.85;;
60372;SDS011;46216;52.220;5.134;2023-01-25T01:01:07;33.30;;;23.23;;
60372;SDS011;46216;52.220;5.134;2023-01-25T01:03:33;33.50;;;23.05;;
60372;SDS011;46216;52.220;5.134;2023-01-25T01:05:59;32.10;;;22.40;;
60372;SDS011;46216;52.220;5.134;2023-01-25T01:08:26;34.03;;;22.70;;
60372;SDS011;46216;52.220;5.134;2023-01-25T01:10:56;31.52;;;22.58;;
60372;SDS011;46216;52.220;5.134;2023-01-25T01:13:23;34.40;;;23.92;;
60372;SDS011;46216;52.220;5.134;2023-01-25T01:15:49;33.22;;;23.20;;
60372;SDS011;46216;52.220;5.134;2023-01-25T01:18:14;34.13;;;22.50;;
60372;SDS011;46216;52.220;5.134;2023-01-25T01:20:39;34.22;;;23.02;;
60372;SDS011;46216;52.220;5.134;2023-01-25T01:23:04;34.75;;;23.30;;
60372;SDS011;46216;52.220;5.134;2023-01-25T01:25:31;31.15;;;22.38;;
60372;SDS011;46216;52.220;5.134;2023-01-25T01:27:56;32.92;;;23.40;;
60372;SDS011;46216;52.220;5.134;2023-01-25T01:30:21;36.25;;;23.48;;
60372;SDS011;46216;52.220;5.134;2023-01-25T01:32:47;33.92;;;23.08;;
60372;SDS011;46216;52.220;5.134;2023-01-25T01:35:15;32.47;;;22.48;;
60372;SDS011;46216;52.220;5.134;2023-01-25T01:37:41;33.33;;;23.58;;
60372;SDS011;46216;52.220;5.134;2023-01-25T01:40:07;35.28;;;24.23;;
60372;SDS011;46216;52.220;5.134;2023-01-25T01:48:12;34.05;;;22.50;;
60372;SDS011;46216;52.220;5.134;2023-01-25T01:50:52;33.88;;;23.33;;
60372;SDS011;46216;52.220;5.134;2023-01-25T01:53:23;34.28;;;22.90;;
60372;SDS011;46216;52.220;5.134;2023-01-25T01:55:50;33.83;;;23.50;;
60372;SDS011;46216;52.220;5.134;2023-01-25T01:58:19;33.15;;;22.88;;
60372;SDS011;46216;52.220;5.134;2023-01-25T02:00:45;32.17;;;23.13;;
60372;SDS011;46216;52.220;5.134;2023-01-25T02:03:10;33.42;;;22.85;;
60372;SDS011;46216;52.220;5.134;2023-01-25T02:08:21;33.00;;;22.60;;
60372;SDS011;46216;52.220;5.134;2023-01-25T02:10:49;33.33;;;22.27;;
60372;SDS011;46216;52.220;5.134;2023-01-25T02:13:15;35.30;;;24.13;;
60372;SDS011;46216;52.220;5.134;2023-01-25T02:15:44;33.40;;;23.95;;
60372;SDS011;46216;52.220;5.134;2023-01-25T02:18:11;32.03;;;23.30;;
60372;SDS011;46216;52.220;5.134;2023-01-25T02:20:38;34.88;;;24.17;;
60372;SDS011;46216;52.220;5.134;2023-01-25T02:23:11;33.97;;;24.08;;
60372;SDS011;46216;52.220;5.134;2023-01-25T02:25:45;34.13;;;24.10;;
60372;SDS011;46216;52.220;5.134;2023-01-25T02:28:13;35.05;;;23.40;;
60372;SDS011;46216;52.220;5.134;2023-01-25T02:30:42;32.63;;;22.58;;
60372;SDS011;46216;52.220;5.134;2023-01-25T02:33:09;35.10;;;23.38;;
60372;SDS011;46216;52.220;5.134;2023-01-25T02:35:58;32.22;;;22.40;;
60372;SDS011;46216;52.220;5.134;2023-01-25T02:38:39;33.45;;;22.35;;
60372;SDS011;46216;52.220;5.134;2023-01-25T02:41:17;34.63;;;23.98;;
60372;SDS011;46216;52.220;5.134;2023-01-25T02:43:48;33.90;;;22.98;;
60372;SDS011;46216;52.220;5.134;2023-01-25T02:46:20;32.70;;;22.30;;
60372;SDS011;46216;52.220;5.134;2023-01-25T02:48:49;32.92;;;22.42;;
60372;SDS011;46216;52.220;5.134;2023-01-25T02:51:15;34.00;;;23.88;;
60372;SDS011;46216;52.220;5.134;2023-01-25T02:53:40;34.25;;;23.02;;
60372;SDS011;46216;52.220;5.134;2023-01-25T02:56:06;33.72;;;23.02;;
60372;SDS011;46216;52.220;5.134;2023-01-25T02:58:31;33.65;;;23.20;;
60372;SDS011;46216;52.220;5.134;2023-01-25T03:00:57;32.40;;;22.13;;
60372;SDS011;46216;52.220;5.134;2023-01-25T03:03:22;30.85;;;21.83;;
60372;SDS011;46216;52.220;5.134;2023-01-25T03:05:48;34.35;;;22.73;;
60372;SDS011;46216;52.220;5.134;2023-01-25T03:08:13;31.73;;;22.10;;
60372;SDS011;46216;52.220;5.134;2023-01-25T03:10:38;32.72;;;23.00;;
60372;SDS011;46216;52.220;5.134;2023-01-25T03:13:03;33.88;;;22.92;;
60372;SDS011;46216;52.220;5.134;2023-01-25T03:15:29;32.28;;;21.88;;
60372;SDS011;46216;52.220;5.134;2023-01-25T03:17:54;32.33;;;22.15;;
60372;SDS011;46216;52.220;5.134;2023-01-25T03:20:21;32.92;;;22.10;;
60372;SDS011;46216;52.220;5.134;2023-01-25T03:22:46;32.25;;;21.23;;
60372;SDS011;46216;52.220;5.134;2023-01-25T03:25:11;31.42;;;21.98;;
60372;SDS011;46216;52.220;5.134;2023-01-25T03:27:37;35.38;;;22.98;;
60372;SDS011;46216;52.220;5.134;2023-01-25T03:30:02;33.35;;;22.05;;
60372;SDS011;46216;52.220;5.134;2023-01-25T03:32:28;31.38;;;21.27;;
60372;SDS011;46216;52.220;5.134;2023-01-25T03:34:53;35.65;;;22.75;;
60372;SDS011;46216;52.220;5.134;2023-01-25T03:37:19;31.95;;;21.77;;
60372;SDS011;46216;52.220;5.134;2023-01-25T03:39:44;33.75;;;21.30;;
60372;SDS011;46216;52.220;5.134;2023-01-25T03:42:10;33.70;;;21.90;;
60372;SDS011;46216;52.220;5.134;2023-01-25T03:44:35;31.13;;;21.08;;
60372;SDS011;46216;52.220;5.134;2023-01-25T03:47:00;31.52;;;21.17;;
60372;SDS011;46216;52.220;5.134;2023-01-25T03:49:26;31.00;;;21.60;;
60372;SDS011;46216;52.220;5.134;2023-01-25T03:51:52;29.05;;;20.35;;
60372;SDS011;46216;52.220;5.134;2023-01-25T03:54:17;31.23;;;21.65;;
60372;SDS011;46216;52.220;5.134;2023-01-25T03:56:43;31.67;;;21.70;;
60372;SDS011;46216;52.220;5.134;2023-01-25T03:59:09;31.90;;;21.25;;
60372;SDS011;46216;52.220;5.134;2023-01-25T04:01:35;31.73;;;21.70;;
60372;SDS011;46216;52.220;5.134;2023-01-25T04:04:00;33.80;;;22.13;;
60372;SDS011;46216;52.220;5.134;2023-01-25T04:06:25;33.92;;;22.02;;
60372;SDS011;46216;52.220;5.134;2023-01-25T04:08:51;34.70;;;22.30;;
60372;SDS011;46216;52.220;5.134;2023-01-25T04:11:16;34.15;;;22.08;;
60372;SDS011;46216;52.220;5.134;2023-01-25T04:13:41;33.50;;;22.50;;
60372;SDS011;46216;52.220;5.134;2023-01-25T04:16:07;32.92;;;21.38;;
60372;SDS011;46216;52.220;5.134;2023-01-25T04:18:36;34.75;;;22.13;;
60372;SDS011;46216;52.220;5.134;2023-01-25T04:21:01;36.25;;;22.10;;
60372;SDS011;46216;52.220;5.134;2023-01-25T04:23:27;36.08;;;22.70;;
60372;SDS011;46216;52.220;5.134;2023-01-25T04:28:18;35.90;;;22.58;;
60372;SDS011;46216;52.220;5.134;2023-01-25T04:30:44;37.97;;;23.42;;
60372;SDS011;46216;52.220;5.134;2023-01-25T04:33:09;36.28;;;23.10;;
60372;SDS011;46216;52.220;5.134;2023-01-25T04:35:35;37.22;;;23.27;;
60372;SDS011;46216;52.220;5.134;2023-01-25T04:38:01;36.30;;;23.42;;
60372;SDS011;46216;52.220;5.134;2023-01-25T04:40:27;33.78;;;21.83;;
60372;SDS011;46216;52.220;5.134;2023-01-25T04:42:53;36.80;;;22.33;;
60372;SDS011;46216;52.220;5.134;2023-01-25T04:45:18;38.53;;;23.08;;
60372;SDS011;46216;52.220;5.134;2023-01-25T04:47:43;36.60;;;22.73;;
60372;SDS011;46216;52.220;5.134;2023-01-25T04:50:09;41.13;;;24.88;;
60372;SDS011;46216;52.220;5.134;2023-01-25T04:52:34;39.87;;;23.70;;
60372;SDS011;46216;52.220;5.134;2023-01-25T04:54:59;37.30;;;23.90;;
60372;SDS011;46216;52.220;5.134;2023-01-25T04:57:25;40.40;;;25.15;;
60372;SDS011;46216;52.220;5.134;2023-01-25T04:59:50;40.43;;;26.07;;
60372;SDS011;46216;52.220;5.134;2023-01-25T05:02:15;43.08;;;26.08;;
60372;SDS011;46216;52.220;5.134;2023-01-25T05:04:41;39.90;;;25.00;;
60372;SDS011;46216;52.220;5.134;2023-01-25T05:07:06;40.83;;;25.25;;
60372;SDS011;46216;52.220;5.134;2023-01-25T05:09:31;39.22;;;24.88;;
60372;SDS011;46216;52.220;5.134;2023-01-25T05:11:57;42.03;;;25.05;;
60372;SDS011;46216;52.220;5.134;2023-01-25T05:14:22;42.17;;;26.55;;
60372;SDS011;46216;52.220;5.134;2023-01-25T05:16:47;39.92;;;24.85;;
60372;SDS011;46216;52.220;5.134;2023-01-25T05:19:12;43.03;;;25.73;;
60372;SDS011;46216;52.220;5.134;2023-01-25T05:21:38;42.70;;;26.50;;
60372;SDS011;46216;52.220;5.134;2023-01-25T05:24:21;41.42;;;24.88;;
60372;SDS011;46216;52.220;5.134;2023-01-25T05:26:47;41.83;;;25.63;;
60372;SDS011;46216;52.220;5.134;2023-01-25T05:29:28;41.85;;;26.00;;
60372;SDS011;46216;52.220;5.134;2023-01-25T05:31:54;40.55;;;24.50;;
60372;SDS011;46216;52.220;5.134;2023-01-25T05:34:19;40.95;;;25.40;;
60372;SDS011;46216;52.220;5.134;2023-01-25T05:36:45;43.72;;;26.95;;
60372;SDS011;46216;52.220;5.134;2023-01-25T05:39:13;44.97;;;27.30;;
60372;SDS011;46216;52.220;5.134;2023-01-25T05:41:38;46.22;;;26.73;;
60372;SDS011;46216;52.220;5.134;2023-01-25T05:44:04;42.50;;;25.98;;
60372;SDS011;46216;52.220;5.134;2023-01-25T05:46:29;44.70;;;27.00;;
60372;SDS011;46216;52.220;5.134;2023-01-25T05:48:54;43.10;;;26.37;;
60372;SDS011;46216;52.220;5.134;2023-01-25T05:51:20;45.37;;;27.20;;
60372;SDS011;46216;52.220;5.134;2023-01-25T05:53:45;41.83;;;25.85;;
60372;SDS011;46216;52.220;5.134;2023-01-25T05:56:11;46.10;;;27.38;;
60372;SDS011;46216;52.220;5.134;2023-01-25T05:58:36;44.67;;;26.15;;
60372;SDS011;46216;52.220;5.134;2023-01-25T06:01:03;41.78;;;25.45;;
60372;SDS011;46216;52.220;5.134;2023-01-25T06:03:29;46.33;;;27.98;;
60372;SDS011;46216;52.220;5.134;2023-01-25T06:05:58;45.35;;;28.23;;
60372;SDS011;46216;52.220;5.134;2023-01-25T06:08:26;45.85;;;28.15;;
60372;SDS011;46216;52.220;5.134;2023-01-25T06:10:52;45.53;;;27.13;;
60372;SDS011;46216;52.220;5.134;2023-01-25T06:13:17;45.28;;;27.83;;
60372;SDS011;46216;52.220;5.134;2023-01-25T06:15:50;43.85;;;27.02;;
60372;SDS011;46216;52.220;5.134;2023-01-25T06:18:17;46.45;;;27.13;;
60372;SDS011;46216;52.220;5.134;2023-01-25T06:20:42;44.67;;;27.13;;
60372;SDS011;46216;52.220;5.134;2023-01-25T06:23:07;48.42;;;28.65;;
60372;SDS011;46216;52.220;5.134;2023-01-25T06:25:33;46.80;;;28.48;;
60372;SDS011;46216;52.220;5.134;2023-01-25T06:27:58;48.13;;;28.52;;
60372;SDS011;46216;52.220;5.134;2023-01-25T06:30:23;46.17;;;27.92;;
60372;SDS011;46216;52.220;5.134;2023-01-25T06:32:48;47.50;;;27.60;;
60372;SDS011;46216;52.220;5.134;2023-01-25T06:35:14;49.83;;;28.83;;
60372;SDS011;46216;52.220;5.134;2023-01-25T06:37:39;50.45;;;29.55;;
60372;SDS011;46216;52.220;5.134;2023-01-25T06:40:05;45.50;;;27.48;;
60372;SDS011;46216;52.220;5.134;2023-01-25T06:42:30;46.03;;;28.13;;
60372;SDS011;46216;52.220;5.134;2023-01-25T06:44:56;49.40;;;28.40;;
60372;SDS011;46216;52.220;5.134;2023-01-25T06:47:21;49.43;;;28.67;;
60372;SDS011;46216;52.220;5.134;2023-01-25T06:49:46;49.13;;;28.25;;
60372;SDS011;46216;52.220;5.134;2023-01-25T06:52:12;46.83;;;28.07;;
60372;SDS011;46216;52.220;5.134;2023-01-25T06:54:37;47.40;;;27.55;;
60372;SDS011;46216;52.220;5.134;2023-01-25T06:57:02;50.17;;;28.38;;
60372;SDS011;46216;52.220;5.134;2023-01-25T06:59:28;49.08;;;28.02;;
60372;SDS011;46216;52.220;5.134;2023-01-25T07:01:53;46.37;;;26.30;;
60372;SDS011;46216;52.220;5.134;2023-01-25T07:04:18;50.50;;;28.47;;
60372;SDS011;46216;52.220;5.134;2023-01-25T07:06:43;47.50;;;26.85;;
60372;SDS011;46216;52.220;5.134;2023-01-25T07:09:09;48.47;;;27.63;;
60372;SDS011;46216;52.220;5.134;2023-01-25T07:11:36;43.80;;;25.93;;
60372;SDS011;46216;52.220;5.134;2023-01-25T07:14:02;44.30;;;25.33;;
60372;SDS011;46216;52.220;5.134;2023-01-25T07:16:28;47.78;;;26.88;;
60372;SDS011;46216;52.220;5.134;2023-01-25T07:19:00;46.38;;;26.98;;
60372;SDS011;46216;52.220;5.134;2023-01-25T07:21:27;46.37;;;28.03;;
60372;SDS011;46216;52.220;5.134;2023-01-25T07:23:52;46.17;;;26.48;;
60372;SDS011;46216;52.220;5.134;2023-01-25T07:26:19;49.27;;;28.50;;
60372;SDS011;46216;52.220;5.134;2023-01-25T07:28:45;46.45;;;27.65;;
60372;SDS011;46216;52.220;5.134;2023-01-25T07:31:11;46.37;;;26.87;;
60372;SDS011;46216;52.220;5.134;2023-01-25T07:33:36;45.37;;;26.33;;
60372;SDS011;46216;52.220;5.134;2023-01-25T07:36:02;44.53;;;25.10;;
60372;SDS011;46216;52.220;5.134;2023-01-25T07:38:29;45.80;;;25.83;;
60372;SDS011;46216;52.220;5.134;2023-01-25T07:40:55;49.37;;;27.67;;
60372;SDS011;46216;52.220;5.134;2023-01-25T07:43:21;50.10;;;27.90;;
60372;SDS011;46216;52.220;5.134;2023-01-25T07:45:46;45.80;;;27.13;;
60372;SDS011;46216;52.220;5.134;2023-01-25T07:48:15;47.20;;;26.97;;
60372;SDS011;46216;52.220;5.134;2023-01-25T07:50:42;47.03;;;27.13;;
60372;SDS011;46216;52.220;5.134;2023-01-25T07:53:11;50.50;;;28.47;;
60372;SDS011;46216;52.220;5.134;2023-01-25T07:55:37;45.70;;;26.47;;
60372;SDS011;46216;52.220;5.134;2023-01-25T07:58:02;46.50;;;27.48;;
60372;SDS011;46216;52.220;5.134;2023-01-25T08:00:27;50.07;;;28.53;;
60372;SDS011;46216;52.220;5.134;2023-01-25T08:02:53;47.92;;;27.00;;
60372;SDS011;46216;52.220;5.134;2023-01-25T08:05:19;49.47;;;27.58;;
60372;SDS011;46216;52.220;5.134;2023-01-25T08:07:44;49.93;;;28.03;;
60372;SDS011;46216;52.220;5.134;2023-01-25T08:10:10;48.80;;;27.30;;
60372;SDS011;46216;52.220;5.134;2023-01-25T08:12:36;51.30;;;28.10;;
60372;SDS011;46216;52.220;5.134;2023-01-25T08:15:02;53.87;;;29.53;;
60372;SDS011;46216;52.220;5.134;2023-01-25T08:17:28;56.87;;;30.03;;
60372;SDS011;46216;52.220;5.134;2023-01-25T08:19:57;52.60;;;28.40;;
60372;SDS011;46216;52.220;5.134;2023-01-25T08:22:23;55.07;;;30.17;;
60372;SDS011;46216;52.220;5.134;2023-01-25T08:24:49;48.97;;;28.87;;
60372;SDS011;46216;52.220;5.134;2023-01-25T08:27:14;50.67;;;29.57;;
60372;SDS011;46216;52.220;5.134;2023-01-25T08:29:40;52.80;;;29.27;;
60372;SDS011;46216;52.220;5.134;2023-01-25T08:32:05;51.90;;;29.13;;
60372;SDS011;46216;52.220;5.134;2023-01-25T08:34:32;52.88;;;29.83;;
60372;SDS011;46216;52.220;5.134;2023-01-25T08:36:58;50.40;;;27.23;;
60372;SDS011;46216;52.220;5.134;2023-01-25T08:39:23;52.80;;;27.80;;
60372;SDS011;46216;52.220;5.134;2023-01-25T08:41:49;55.70;;;30.00;;
60372;SDS011;46216;52.220;5.134;2023-01-25T08:44:14;50.10;;;28.33;;
60372;SDS011;46216;52.220;5.134;2023-01-25T08:46:40;53.97;;;29.53;;
60372;SDS011;46216;52.220;5.134;2023-01-25T08:49:05;52.20;;;28.70;;
60372;SDS011;46216;52.220;5.134;2023-01-25T08:51:32;53.23;;;28.97;;
60372;SDS011;46216;52.220;5.134;2023-01-25T08:54:01;54.90;;;29.98;;
60372;SDS011;46216;52.220;5.134;2023-01-25T08:56:31;54.95;;;30.60;;
60372;SDS011;46216;52.220;5.134;2023-01-25T08:58:56;53.90;;;29.70;;
60372;SDS011;46216;52.220;5.134;2023-01-25T09:01:22;54.97;;;30.87;;
60372;SDS011;46216;52.220;5.134;2023-01-25T09:03:48;57.55;;;30.02;;
60372;SDS011;46216;52.220;5.134;2023-01-25T09:06:15;55.37;;;30.10;;
60372;SDS011;46216;52.220;5.134;2023-01-25T09:08:41;59.30;;;31.40;;
60372;SDS011;46216;52.220;5.134;2023-01-25T09:11:09;61.50;;;30.90;;
60372;SDS011;46216;52.220;5.134;2023-01-25T09:13:37;56.83;;;31.70;;
60372;SDS011;46216;52.220;5.134;2023-01-25T09:16:03;60.77;;;32.03;;
60372;SDS011;46216;52.220;5.134;2023-01-25T09:18:31;61.60;;;31.83;;
60372;SDS011;46216;52.220;5.134;2023-01-25T09:20:57;59.67;;;31.20;;
60372;SDS011;46216;52.220;5.134;2023-01-25T09:23:29;59.63;;;31.57;;
60372;SDS011;46216;52.220;5.134;2023-01-25T09:25:57;57.67;;;31.47;;
60372;SDS011;46216;52.220;5.134;2023-01-25T09:28:24;59.27;;;30.00;;
60372;SDS011;46216;52.220;5.134;2023-01-25T09:30:54;59.73;;;30.23;;
60372;SDS011;46216;52.220;5.134;2023-01-25T09:33:23;59.27;;;31.97;;
60372;SDS011;46216;52.220;5.134;2023-01-25T09:35:49;57.00;;;31.03;;
60372;SDS011;46216;52.220;5.134;2023-01-25T09:38:15;57.80;;;31.03;;
60372;SDS011;46216;52.220;5.134;2023-01-25T09:40:40;60.37;;;30.80;;
60372;SDS011;46216;52.220;5.134;2023-01-25T09:43:36;61.60;;;30.73;;
60372;SDS011;46216;52.220;5.134;2023-01-25T09:46:39;59.80;;;30.20;;
60372;SDS011;46216;52.220;5.134;2023-01-25T09:54:37;60.03;;;30.60;;
60372;SDS011;46216;52.220;5.134;2023-01-25T09:57:08;59.43;;;30.13;;
60372;SDS011;46216;52.220;5.134;2023-01-25T09:59:39;57.17;;;28.63;;
60372;SDS011;46216;52.220;5.134;2023-01-25T10:02:39;57.70;;;30.57;;
60372;SDS011;46216;52.220;5.134;2023-01-25T10:05:12;58.10;;;30.77;;
60372;SDS011;46216;52.220;5.134;2023-01-25T10:07:46;60.53;;;30.73;;
60372;SDS011;46216;52.220;5.134;2023-01-25T10:10:22;59.83;;;31.90;;
60372;SDS011;46216;52.220;5.134;2023-01-25T10:12:53;62.37;;;31.33;;
60372;SDS011;46216;52.220;5.134;2023-01-25T10:15:20;63.40;;;32.37;;
60372;SDS011;46216;52.220;5.134;2023-01-25T10:17:52;62.93;;;32.30;;
60372;SDS011;46216;52.220;5.134;2023-01-25T10:20:35;64.53;;;32.43;;
60372;SDS011;46216;52.220;5.134;2023-01-25T10:25:57;63.87;;;31.87;;
60372;SDS011;46216;52.220;5.134;2023-01-25T10:28:41;63.78;;;31.05;;
60372;SDS011;46216;52.220;5.134;2023-01-25T10:31:32;60.37;;;30.80;;
60372;SDS011;46216;52.220;5.134;2023-01-25T10:34:12;62.43;;;32.10;;
60372;SDS011;46216;52.220;5.134;2023-01-25T10:36:42;60.13;;;31.93;;
60372;SDS011;46216;52.220;5.134;2023-01-25T10:39:11;66.63;;;33.50;;
60372;SDS011;46216;52.220;5.134;2023-01-25T10:41:40;60.70;;;30.77;;
60372;SDS011;46216;52.220;5.134;2023-01-25T10:44:10;63.80;;;31.53;;
60372;SDS011;46216;52.220;5.134;2023-01-25T10:47:11;62.43;;;31.83;;
60372;SDS011;46216;52.220;5.134;2023-01-25T10:49:46;63.30;;;32.27;;
60372;SDS011;46216;52.220;5.134;2023-01-25T10:52:20;65.60;;;33.27;;
60372;SDS011;46216;52.220;5.134;2023-01-25T11:00:24;66.93;;;33.30;;
60372;SDS011;46216;52.220;5.134;2023-01-25T11:02:53;63.17;;;32.10;;
60372;SDS011;46216;52.220;5.134;2023-01-25T11:05:35;63.73;;;32.80;;
60372;SDS011;46216;52.220;5.134;2023-01-25T11:10:47;58.67;;;29.93;;
60372;SDS011;46216;52.220;5.134;2023-01-25T11:15:41;59.77;;;29.87;;
60372;SDS011;46216;52.220;5.134;2023-01-25T11:18:12;65.03;;;31.07;;
60372;SDS011;46216;52.220;5.134;2023-01-25T11:20:43;58.00;;;30.60;;
60372;SDS011;46216;52.220;5.134;2023-01-25T11:23:20;59.90;;;30.20;;
60372;SDS011;46216;52.220;5.134;2023-01-25T11:25:48;58.33;;;29.77;;
60372;SDS011;46216;52.220;5.134;2023-01-25T11:28:20;60.40;;;29.10;;
60372;SDS011;46216;52.220;5.134;2023-01-25T11:30:48;56.93;;;29.83;;
60372;SDS011;46216;52.220;5.134;2023-01-25T11:33:18;62.47;;;30.33;;
60372;SDS011;46216;52.220;5.134;2023-01-25T11:35:56;60.10;;;30.70;;
60372;SDS011;46216;52.220;5.134;2023-01-25T11:41:26;60.57;;;30.00;;
60372;SDS011;46216;52.220;5.134;2023-01-25T11:53:08;63.17;;;32.07;;
60372;SDS011;46216;52.220;5.134;2023-01-25T11:55:53;60.53;;;29.97;;
60372;SDS011;46216;52.220;5.134;2023-01-25T12:12:15;63.40;;;31.37;;
60372;SDS011;46216;52.220;5.134;2023-01-25T12:30:57;67.10;;;33.37;;
60372;SDS011;46216;52.220;5.134;2023-01-25T12:33:37;63.60;;;31.90;;
60372;SDS011;46216;52.220;5.134;2023-01-25T12:41:30;62.93;;;31.77;;
60372;SDS011;46216;52.220;5.134;2023-01-25T12:44:23;62.77;;;31.47;;
60372;SDS011;46216;52.220;5.134;2023-01-25T12:54:44;61.63;;;31.17;;
60372;SDS011;46216;52.220;5.134;2023-01-25T12:57:18;64.70;;;31.70;;
60372;SDS011;46216;52.220;5.134;2023-01-25T13:05:31;60.90;;;31.03;;
60372;SDS011;46216;52.220;5.134;2023-01-25T13:13:34;66.00;;;31.67;;
60372;SDS011;46216;52.220;5.134;2023-01-25T13:16:21;61.28;;;31.33;;
60372;SDS011;46216;52.220;5.134;2023-01-25T13:18:56;58.20;;;29.23;;
60372;SDS011;46216;52.220;5.134;2023-01-25T13:21:44;61.00;;;30.50;;
60372;SDS011;46216;52.220;5.134;2023-01-25T13:24:13;62.57;;;30.73;;
60372;SDS011;46216;52.220;5.134;2023-01-25T13:42:33;62.83;;;31.20;;
60372;SDS011;46216;52.220;5.134;2023-01-25T13:47:39;63.77;;;31.80;;
60372;SDS011;46216;52.220;5.134;2023-01-25T13:52:38;67.47;;;32.10;;
60372;SDS011;46216;52.220;5.134;2023-01-25T13:55:19;71.23;;;34.43;;
60372;SDS011;46216;52.220;5.134;2023-01-25T13:57:45;70.33;;;33.37;;
60372;SDS011;46216;52.220;5.134;2023-01-25T14:00:14;70.87;;;34.17;;
60372;SDS011;46216;52.220;5.134;2023-01-25T14:02:44;73.77;;;36.03;;
60372;SDS011;46216;52.220;5.134;2023-01-25T14:05:18;77.93;;;36.40;;
60372;SDS011;46216;52.220;5.134;2023-01-25T14:07:46;83.57;;;38.23;;
60372;SDS011;46216;52.220;5.134;2023-01-25T14:10:15;87.63;;;40.37;;
60372;SDS011;46216;52.220;5.134;2023-01-25T14:12:43;92.73;;;40.70;;
60372;SDS011;46216;52.220;5.134;2023-01-25T14:15:16;93.03;;;40.47;;
60372;SDS011;46216;52.220;5.134;2023-01-25T14:17:43;89.57;;;41.60;;
60372;SDS011;46216;52.220;5.134;2023-01-25T14:20:19;85.23;;;38.97;;
60372;SDS011;46216;52.220;5.134;2023-01-25T14:22:46;92.43;;;41.63;;
60372;SDS011;46216;52.220;5.134;2023-01-25T14:25:17;89.77;;;40.00;;
60372;SDS011;46216;52.220;5.134;2023-01-25T14:27:49;94.93;;;42.33;;
60372;SDS011;46216;52.220;5.134;2023-01-25T14:32:50;93.03;;;41.23;;
60372;SDS011;46216;52.220;5.134;2023-01-25T14:35:34;85.93;;;38.77;;
60372;SDS011;46216;52.220;5.134;2023-01-25T14:38:02;86.13;;;39.47;;
60372;SDS011;46216;52.220;5.134;2023-01-25T14:40:42;75.93;;;35.53;;
60372;SDS011;46216;52.220;5.134;2023-01-25T14:43:10;84.10;;;39.33;;
60372;SDS011;46216;52.220;5.134;2023-01-25T14:45:36;83.03;;;39.33;;
60372;SDS011;46216;52.220;5.134;2023-01-25T14:48:01;89.80;;;40.73;;
60372;SDS011;46216;52.220;5.134;2023-01-25T14:50:36;86.67;;;41.10;;
60372;SDS011;46216;52.220;5.134;2023-01-25T14:53:07;90.47;;;38.97;;
60372;SDS011;46216;52.220;5.134;2023-01-25T14:55:43;91.27;;;40.40;;
60372;SDS011;46216;52.220;5.134;2023-01-25T14:58:11;90.33;;;40.83;;
60372;SDS011;46216;52.220;5.134;2023-01-25T15:00:43;90.87;;;40.37;;
60372;SDS011;46216;52.220;5.134;2023-01-25T15:03:16;97.63;;;40.93;;
60372;SDS011;46216;52.220;5.134;2023-01-25T15:05:44;95.70;;;40.47;;
60372;SDS011;46216;52.220;5.134;2023-01-25T15:10:57;95.43;;;41.17;;
60372;SDS011;46216;52.220;5.134;2023-01-25T15:13:42;92.80;;;38.60;;
60372;SDS011;46216;52.220;5.134;2023-01-25T15:16:08;92.47;;;38.13;;
60372;SDS011;46216;52.220;5.134;2023-01-25T15:18:45;96.10;;;39.87;;
60372;SDS011;46216;52.220;5.134;2023-01-25T15:21:18;97.97;;;39.00;;
60372;SDS011;46216;52.220;5.134;2023-01-25T15:23:55;89.60;;;38.90;;
60372;SDS011;46216;52.220;5.134;2023-01-25T15:26:22;90.27;;;38.13;;
60372;SDS011;46216;52.220;5.134;2023-01-25T15:28:50;91.37;;;38.47;;
60372;SDS011;46216;52.220;5.134;2023-01-25T15:31:18;94.70;;;39.97;;
60372;SDS011;46216;52.220;5.134;2023-01-25T15:33:44;87.90;;;37.90;;
60372;SDS011;46216;52.220;5.134;2023-01-25T15:36:11;88.13;;;39.00;;
60372;SDS011;46216;52.220;5.134;2023-01-25T15:38:38;92.75;;;38.05;;
60372;SDS011;46216;52.220;5.134;2023-01-25T15:41:04;89.67;;;35.53;;
60372;SDS011;46216;52.220;5.134;2023-01-25T15:43:29;93.83;;;38.87;;
60372;SDS011;46216;52.220;5.134;2023-01-25T15:45:54;95.33;;;38.67;;
60372;SDS011;46216;52.220;5.134;2023-01-25T15:48:43;92.67;;;39.57;;
60372;SDS011;46216;52.220;5.134;2023-01-25T15:51:08;86.97;;;37.60;;
60372;SDS011;46216;52.220;5.134;2023-01-25T15:53:33;91.57;;;38.80;;
60372;SDS011;46216;52.220;5.134;2023-01-25T15:56:00;89.50;;;37.83;;
60372;SDS011;46216;52.220;5.134;2023-01-25T15:58:29;85.03;;;35.37;;
60372;SDS011;46216;52.220;5.134;2023-01-25T16:00:58;81.70;;;36.83;;
60372;SDS011;46216;52.220;5.134;2023-01-25T16:03:26;86.97;;;37.53;;
60372;SDS011;46216;52.220;5.134;2023-01-25T16:05:55;92.83;;;38.50;;
60372;SDS011;46216;52.220;5.134;2023-01-25T16:08:25;90.77;;;38.17;;
60372;SDS011;46216;52.220;5.134;2023-01-25T16:10:50;94.60;;;39.43;;
60372;SDS011;46216;52.220;5.134;2023-01-25T16:13:16;90.27;;;38.63;;
60372;SDS011;46216;52.220;5.134;2023-01-25T16:15:41;95.00;;;39.73;;
60372;SDS011;46216;52.220;5.134;2023-01-25T16:18:08;93.37;;;39.33;;
60372;SDS011;46216;52.220;5.134;2023-01-25T16:20:37;93.93;;;39.33;;
60372;SDS011;46216;52.220;5.134;2023-01-25T16:23:03;84.50;;;37.30;;
60372;SDS011;46216;52.220;5.134;2023-01-25T16:25:28;93.80;;;39.00;;
60372;SDS011;46216;52.220;5.134;2023-01-25T16:27:53;89.00;;;36.93;;
60372;SDS011;46216;52.220;5.134;2023-01-25T16:30:20;92.70;;;39.13;;
60372;SDS011;46216;52.220;5.134;2023-01-25T16:32:47;91.93;;;38.23;;